createdAt,value
2018-02-09T00:00:09.289Z,41.1
2018-02-09T00:01:18.231Z,40.91
2018-02-09T00:02:27.434Z,41.1
2018-02-09T00:03:36.376Z,40.72
2018-02-09T00:04:45.862Z,41.1
2018-02-09T00:05:54.558Z,40.91
2018-02-09T00:07:03.240Z,41.1
2018-02-09T00:08:12.199Z,41.1
2018-02-09T00:09:21.157Z,41.1
2018-02-09T00:10:30.372Z,41.1
2018-02-09T00:11:39.074Z,41.1
2018-02-09T00:12:48.306Z,41.1
2018-02-09T00:13:57.269Z,41.2
2018-02-09T00:15:05.967Z,41.2
2018-02-09T00:16:14.930Z,41.1
2018-02-09T00:17:23.884Z,41.29
2018-02-09T00:18:33.102Z,41.1
2018-02-09T00:19:41.794Z,41
2018-02-09T00:20:50.497Z,41
2018-02-09T00:21:59.453Z,41.2
2018-02-09T00:23:08.152Z,41
2018-02-09T00:24:17.382Z,41.2
2018-02-09T00:25:26.332Z,41
2018-02-09T00:26:35.536Z,40.91
2018-02-09T00:27:44.755Z,41.1
2018-02-09T00:28:53.702Z,40.91
2018-02-09T00:30:02.389Z,40.91
2018-02-09T00:31:11.360Z,40.81
2018-02-09T00:32:20.570Z,41
2018-02-09T00:33:29.253Z,41.1
2018-02-09T00:34:38.228Z,40.91
2018-02-09T00:35:46.926Z,40.91
2018-02-09T00:36:56.164Z,41.1
2018-02-09T00:38:05.382Z,41
2018-02-09T00:39:14.071Z,41.2
2018-02-09T00:40:23.290Z,41
2018-02-09T00:41:32.289Z,41
2018-02-09T00:42:41.200Z,41.1
2018-02-09T00:43:50.155Z,41.1
2018-02-09T00:44:58.854Z,41.1
2018-02-09T00:46:07.795Z,41
2018-02-09T00:47:16.472Z,41.2
2018-02-09T00:48:25.151Z,41.29
2018-02-09T00:49:34.100Z,41.2
2018-02-09T00:50:43.042Z,41
2018-02-09T00:51:51.988Z,41
2018-02-09T00:53:00.667Z,41.1
2018-02-09T00:54:10.142Z,41
2018-02-09T00:55:19.091Z,40.91
2018-02-09T00:56:28.304Z,40.91
2018-02-09T00:57:37.512Z,41.1
2018-02-09T00:58:46.451Z,41.1
2018-02-09T00:59:55.129Z,41
2018-02-09T01:01:04.074Z,41.1
2018-02-09T01:02:13.016Z,41.1
2018-02-09T01:03:21.696Z,41.1
2018-02-09T01:04:30.374Z,41
2018-02-09T01:05:39.574Z,41.1
2018-02-09T01:06:48.519Z,41.2
2018-02-09T01:07:57.199Z,41
2018-02-09T01:09:06.144Z,41.1
2018-02-09T01:10:14.820Z,41.1
2018-02-09T01:11:23.763Z,41
2018-02-09T01:12:32.702Z,41.1
2018-02-09T01:13:41.643Z,41
2018-02-09T01:14:50.591Z,41.2
2018-02-09T01:16:00.599Z,41.1
2018-02-09T01:17:09.274Z,41.1
2018-02-09T01:18:18.222Z,41.2
2018-02-09T01:19:27.430Z,41.2
2018-02-09T01:20:36.374Z,40.91
2018-02-09T01:21:45.311Z,41.2
2018-02-09T01:22:54.253Z,41.1
2018-02-09T01:24:03.198Z,41.1
2018-02-09T01:25:11.875Z,41.2
2018-02-09T01:26:20.555Z,41.2
2018-02-09T01:27:29.760Z,40.72
2018-02-09T01:28:38.966Z,41.1
2018-02-09T01:29:47.913Z,41.2
2018-02-09T01:30:56.855Z,41.2
2018-02-09T01:32:05.533Z,40.62
2018-02-09T01:33:14.213Z,40.43
2018-02-09T01:34:22.899Z,41.1
2018-02-09T01:35:31.831Z,40.43
2018-02-09T01:36:40.777Z,40.52
2018-02-09T01:37:49.722Z,40.52
2018-02-09T01:38:58.401Z,40.52
2018-02-09T01:40:07.610Z,40.43
2018-02-09T01:41:16.285Z,40.33
2018-02-09T01:42:24.962Z,40.62
2018-02-09T01:43:33.900Z,40.43
2018-02-09T01:44:43.107Z,40.33
2018-02-09T01:45:52.053Z,40.43
2018-02-09T01:47:00.730Z,40.43
2018-02-09T01:48:09.406Z,40.43
2018-02-09T01:49:18.607Z,40.33
2018-02-09T01:50:27.546Z,40.43
2018-02-09T01:51:36.756Z,40.23
2018-02-09T01:52:45.700Z,40.52
2018-02-09T01:53:54.376Z,40.14
2018-02-09T01:55:03.322Z,40.23
2018-02-09T01:56:12.265Z,40.43
2018-02-09T01:57:21.477Z,40.43
2018-02-09T01:58:30.961Z,40.43
2018-02-09T01:59:39.901Z,40.43
2018-02-09T02:00:48.841Z,40.43
2018-02-09T02:01:58.050Z,40.33
2018-02-09T02:03:06.996Z,40.43
2018-02-09T02:04:15.676Z,40.52
2018-02-09T02:05:24.615Z,40.52
2018-02-09T02:06:33.562Z,40.43
2018-02-09T02:07:42.240Z,40.43
2018-02-09T02:08:51.182Z,40.23
2018-02-09T02:10:00.127Z,40.43
2018-02-09T02:11:08.808Z,40.33
2018-02-09T02:12:17.744Z,40.33
2018-02-09T02:13:26.692Z,40.43
2018-02-09T02:14:35.901Z,40.23
2018-02-09T02:15:44.843Z,40.23
2018-02-09T02:16:54.049Z,40.33
2018-02-09T02:18:02.725Z,40.23
2018-02-09T02:19:11.667Z,40.33
2018-02-09T02:20:20.613Z,40.23
2018-02-09T02:21:29.288Z,40.33
2018-02-09T02:22:37.967Z,40.43
2018-02-09T02:23:46.910Z,40.23
2018-02-09T02:24:56.121Z,40.23
2018-02-09T02:26:05.327Z,40.23
2018-02-09T02:27:14.802Z,40.33
2018-02-09T02:28:23.476Z,40.23
2018-02-09T02:29:32.153Z,40.33
2018-02-09T02:30:41.097Z,40.23
2018-02-09T02:31:49.779Z,40.33
2018-02-09T02:32:58.990Z,40.33
2018-02-09T02:34:07.943Z,40.23
2018-02-09T02:35:17.428Z,40.33
2018-02-09T02:36:26.377Z,40.23
2018-02-09T02:37:35.320Z,40.33
2018-02-09T02:38:44.261Z,40.33
2018-02-09T02:39:52.939Z,40.43
2018-02-09T02:41:01.885Z,40.33
2018-02-09T02:42:11.102Z,40.33
2018-02-09T02:43:20.050Z,40.33
2018-02-09T02:44:28.993Z,40.33
2018-02-09T02:45:38.207Z,40.14
2018-02-09T02:46:47.436Z,40.33
2018-02-09T02:47:56.116Z,40.33
2018-02-09T02:49:05.059Z,40.23
2018-02-09T02:50:13.737Z,40.23
2018-02-09T02:51:22.684Z,40.23
2018-02-09T02:52:31.361Z,40.33
2018-02-09T02:53:40.839Z,40.23
2018-02-09T02:54:49.781Z,40.23
2018-02-09T02:55:58.727Z,40.33
2018-02-09T02:57:07.675Z,40.33
2018-02-09T02:58:16.879Z,40.33
2018-02-09T02:59:25.821Z,40.33
2018-02-09T03:00:35.030Z,40.23
2018-02-09T03:01:43.973Z,40.05
2018-02-09T03:02:52.920Z,40.33
2018-02-09T03:04:02.133Z,40.23
2018-02-09T03:05:11.344Z,40.33
2018-02-09T03:06:20.552Z,39.85
2018-02-09T03:07:29.229Z,39.95
2018-02-09T03:08:38.172Z,39.95
2018-02-09T03:09:47.115Z,39.95
2018-02-09T03:10:56.061Z,40.05
2018-02-09T03:12:05.270Z,40.05
2018-02-09T03:13:14.484Z,40.05
2018-02-09T03:14:23.971Z,39.85
2018-02-09T03:15:32.925Z,39.85
2018-02-09T03:16:41.881Z,40.05
2018-02-09T03:17:51.108Z,40.05
2018-02-09T03:18:59.797Z,40.05
2018-02-09T03:20:09.025Z,39.95
2018-02-09T03:21:18.245Z,40.14
2018-02-09T03:22:26.934Z,40.05
2018-02-09T03:23:36.152Z,40.05
2018-02-09T03:24:45.374Z,40.05
2018-02-09T03:25:54.591Z,40.05
2018-02-09T03:27:03.540Z,39.95
2018-02-09T03:28:12.229Z,39.85
2018-02-09T03:29:21.449Z,39.85
2018-02-09T03:30:30.400Z,39.85
2018-02-09T03:31:39.355Z,39.85
2018-02-09T03:32:48.309Z,40.05
2018-02-09T03:33:56.999Z,39.95
2018-02-09T03:35:06.221Z,39.95
2018-02-09T03:36:15.448Z,39.95
2018-02-09T03:37:24.402Z,40.05
2018-02-09T03:38:33.623Z,40.02
2018-02-09T03:39:42.846Z,39.95
2018-02-09T03:40:52.062Z,39.85
2018-02-09T03:42:01.013Z,40.05
2018-02-09T03:43:10.231Z,39.85
2018-02-09T03:44:19.181Z,39.95
2018-02-09T03:45:28.138Z,39.85
2018-02-09T03:46:37.090Z,39.85
2018-02-09T03:47:46.317Z,39.85
2018-02-09T03:48:55.009Z,39.95
2018-02-09T03:50:03.958Z,40.05
2018-02-09T03:51:12.921Z,39.85
2018-02-09T03:52:21.879Z,39.66
2018-02-09T03:53:30.835Z,39.83
2018-02-09T03:54:39.518Z,39.95
2018-02-09T03:55:48.210Z,39.66
2018-02-09T03:56:57.425Z,39.66
2018-02-09T03:58:06.114Z,39.56
2018-02-09T03:59:15.597Z,39.56
2018-02-09T04:00:24.555Z,39.47
2018-02-09T04:01:33.511Z,39.95
2018-02-09T04:02:42.466Z,39.56
2018-02-09T04:03:51.421Z,39.56
2018-02-09T04:05:00.377Z,39.95
2018-02-09T04:06:09.334Z,39.85
2018-02-09T04:07:18.022Z,39.85
2018-02-09T04:08:27.241Z,39.93
2018-02-09T04:09:35.928Z,39.95
2018-02-09T04:10:44.617Z,39.76
2018-02-09T04:11:53.567Z,39.95
2018-02-09T04:13:02.522Z,39.95
2018-02-09T04:14:11.207Z,39.95
2018-02-09T04:15:20.693Z,39.95
2018-02-09T04:16:29.382Z,39.85
2018-02-09T04:17:38.340Z,39.93
2018-02-09T04:18:47.294Z,39.85
2018-02-09T04:19:56.247Z,39.95
2018-02-09T04:21:05.203Z,39.95
2018-02-09T04:22:14.687Z,39.95
2018-02-09T04:23:23.374Z,39.54
2018-02-09T04:24:32.062Z,39.95
2018-02-09T04:25:41.283Z,39.95
2018-02-09T04:26:50.240Z,39.76
2018-02-09T04:27:58.931Z,39.47
2018-02-09T04:29:07.891Z,39.76
2018-02-09T04:30:16.578Z,39.95
2018-02-09T04:31:25.536Z,39.95
2018-02-09T04:32:34.489Z,39.95
2018-02-09T04:33:43.444Z,39.95
2018-02-09T04:34:52.927Z,39.76
2018-02-09T04:36:02.417Z,39.85
2018-02-09T04:37:11.371Z,39.76
2018-02-09T04:38:20.326Z,39.85
2018-02-09T04:39:29.016Z,39.76
2018-02-09T04:40:37.967Z,39.95
2018-02-09T04:41:46.922Z,39.85
2018-02-09T04:42:55.877Z,39.76
2018-02-09T04:44:04.885Z,39.85
2018-02-09T04:45:13.840Z,39.85
2018-02-09T04:46:22.792Z,39.76
2018-02-09T04:47:32.284Z,39.95
2018-02-09T04:48:41.237Z,39.85
2018-02-09T04:49:50.518Z,39.95
2018-02-09T04:50:59.469Z,39.85
2018-02-09T04:52:08.155Z,39.95
2018-02-09T04:53:16.841Z,39.95
2018-02-09T04:54:25.799Z,39.76
2018-02-09T04:55:34.758Z,39.76
2018-02-09T04:56:43.991Z,39.76
2018-02-09T04:57:52.946Z,39.95
2018-02-09T04:59:01.640Z,39.85
2018-02-09T05:00:10.858Z,39.76
2018-02-09T05:01:19.813Z,39.85
2018-02-09T05:02:28.499Z,39.76
2018-02-09T05:03:37.723Z,39.76
2018-02-09T05:04:46.694Z,39.76
2018-02-09T05:05:55.369Z,39.73
2018-02-09T05:07:04.587Z,39.73
2018-02-09T05:08:13.543Z,39.85
2018-02-09T05:09:23.029Z,39.66
2018-02-09T05:10:31.989Z,39.85
2018-02-09T05:11:41.208Z,39.76
2018-02-09T05:12:50.465Z,39.76
2018-02-09T05:13:59.119Z,39.83
2018-02-09T05:15:08.070Z,39.85
2018-02-09T05:16:17.290Z,39.76
2018-02-09T05:17:25.979Z,39.95
2018-02-09T05:18:35.463Z,39.85
2018-02-09T05:19:44.686Z,39.76
2018-02-09T05:20:53.375Z,39.95
2018-02-09T05:22:02.593Z,39.76
2018-02-09T05:23:11.819Z,39.66
2018-02-09T05:24:20.772Z,39.56
2018-02-09T05:25:30.003Z,39.85
2018-02-09T05:26:39.225Z,39.56
2018-02-09T05:27:48.197Z,39.56
2018-02-09T05:28:57.160Z,39.83
2018-02-09T05:30:05.834Z,39.66
2018-02-09T05:31:14.793Z,39.66
2018-02-09T05:32:23.484Z,39.66
2018-02-09T05:33:32.172Z,39.66
2018-02-09T05:34:41.385Z,39.76
2018-02-09T05:35:50.605Z,39.76
2018-02-09T05:36:59.293Z,39.66
2018-02-09T05:38:08.245Z,39.76
2018-02-09T05:39:17.457Z,39.85
2018-02-09T05:40:26.141Z,39.85
2018-02-09T05:41:35.095Z,39.56
2018-02-09T05:42:44.319Z,39.76
2018-02-09T05:43:53.007Z,39.76
2018-02-09T05:45:01.695Z,39.85
2018-02-09T05:46:10.647Z,39.85
2018-02-09T05:47:19.603Z,39.76
2018-02-09T05:48:28.560Z,39.76
2018-02-09T05:49:37.778Z,39.76
2018-02-09T05:50:46.729Z,39.76
2018-02-09T05:51:55.682Z,39.76
2018-02-09T05:53:05.167Z,39.95
2018-02-09T05:54:14.389Z,39.95
2018-02-09T05:55:23.341Z,39.76
2018-02-09T05:56:32.033Z,39.66
2018-02-09T05:57:40.987Z,39.85
2018-02-09T05:58:49.942Z,38.99
2018-02-09T05:59:59.427Z,38.51
2018-02-09T06:01:08.116Z,38.79
2018-02-09T06:02:17.074Z,37.93
2018-02-09T06:03:26.302Z,38.12
2018-02-09T06:04:35.521Z,37.45
2018-02-09T06:05:44.474Z,37.53
2018-02-09T06:06:53.690Z,37.34
2018-02-09T06:08:02.643Z,37.34
2018-02-09T06:09:11.862Z,37.53
2018-02-09T06:10:20.822Z,37.34
2018-02-09T06:11:29.511Z,37.15
2018-02-09T06:12:38.727Z,37.05
2018-02-09T06:13:47.948Z,37.05
2018-02-09T06:14:57.164Z,37.15
2018-02-09T06:16:05.854Z,37.15
2018-02-09T06:17:14.808Z,37.05
2018-02-09T06:18:23.497Z,37.15
2018-02-09T06:19:32.186Z,37.24
2018-02-09T06:20:40.877Z,37.15
2018-02-09T06:21:49.830Z,37.34
2018-02-09T06:22:59.052Z,37.05
2018-02-09T06:24:08.269Z,37.43
2018-02-09T06:25:17.225Z,37.53
2018-02-09T06:26:25.914Z,37.43
2018-02-09T06:27:34.869Z,37.24
2018-02-09T06:28:44.353Z,37.34
2018-02-09T06:29:53.096Z,37.43
2018-02-09T06:31:01.996Z,37.24
2018-02-09T06:32:10.949Z,37.34
2018-02-09T06:33:19.906Z,37.43
2018-02-09T06:34:28.594Z,37.53
2018-02-09T06:35:37.545Z,37.34
2018-02-09T06:36:46.770Z,37.53
2018-02-09T06:37:55.462Z,37.53
2018-02-09T06:39:04.416Z,37.34
2018-02-09T06:40:13.374Z,37.24
2018-02-09T06:41:22.331Z,37.34
2018-02-09T06:42:31.019Z,37.6
2018-02-09T06:43:39.708Z,37.34
2018-02-09T06:44:48.663Z,37.62
2018-02-09T06:45:57.618Z,37.62
2018-02-09T06:47:06.575Z,37.43
2018-02-09T06:48:16.062Z,37.53
2018-02-09T06:49:24.754Z,37.53
2018-02-09T06:50:33.717Z,37.53
2018-02-09T06:51:42.936Z,37.43
2018-02-09T06:52:51.891Z,37.43
2018-02-09T06:54:00.841Z,37.41
2018-02-09T06:55:09.538Z,37.51
2018-02-09T06:56:18.500Z,37.51
2018-02-09T06:57:27.452Z,37.7
2018-02-09T06:58:36.940Z,38.09
2018-02-09T06:59:45.893Z,37.8
2018-02-09T07:00:54.842Z,38.09
2018-02-09T07:02:03.796Z,38.2
2018-02-09T07:03:12.485Z,38.28
2018-02-09T07:04:21.442Z,38.1
2018-02-09T07:05:30.664Z,38.18
2018-02-09T07:06:39.618Z,38.01
2018-02-09T07:07:48.572Z,38.1
2018-02-09T07:08:57.262Z,37.89
2018-02-09T07:10:06.212Z,37.99
2018-02-09T07:11:14.900Z,37.99
2018-02-09T07:12:24.156Z,38.01
2018-02-09T07:13:32.846Z,38.01
2018-02-09T07:14:41.531Z,37.99
2018-02-09T07:15:50.492Z,37.82
2018-02-09T07:16:59.448Z,37.91
2018-02-09T07:18:08.673Z,38.01
2018-02-09T07:19:17.625Z,37.82
2018-02-09T07:20:26.318Z,37.8
2018-02-09T07:21:35.003Z,37.82
2018-02-09T07:22:43.965Z,37.91
2018-02-09T07:23:52.650Z,37.8
2018-02-09T07:25:01.603Z,37.89
2018-02-09T07:26:10.826Z,38.01
2018-02-09T07:27:19.781Z,37.82
2018-02-09T07:28:28.735Z,37.89
2018-02-09T07:29:37.423Z,37.82
2018-02-09T07:30:46.112Z,37.82
2018-02-09T07:31:54.799Z,37.8
2018-02-09T07:33:04.020Z,37.7
2018-02-09T07:34:12.709Z,37.91
2018-02-09T07:35:21.661Z,37.82
2018-02-09T07:36:30.618Z,37.8
2018-02-09T07:37:39.306Z,37.8
2018-02-09T07:38:48.003Z,37.72
2018-02-09T07:39:56.689Z,37.7
2018-02-09T07:41:05.640Z,37.82
2018-02-09T07:42:14.328Z,37.7
2018-02-09T07:43:23.022Z,37.72
2018-02-09T07:44:32.244Z,37.7
2018-02-09T07:45:40.932Z,38.01
2018-02-09T07:46:49.621Z,38.1
2018-02-09T07:47:58.577Z,37.89
2018-02-09T07:49:07.264Z,38.01
2018-02-09T07:50:16.485Z,37.89
2018-02-09T07:51:25.445Z,37.82
2018-02-09T07:52:34.139Z,37.89
2018-02-09T07:53:43.092Z,38.09
2018-02-09T07:54:52.046Z,37.99
2018-02-09T07:56:00.996Z,38.1
2018-02-09T07:57:10.216Z,38.09
2018-02-09T07:58:19.722Z,38.28
2018-02-09T07:59:28.717Z,38.18
2018-02-09T08:00:37.670Z,38.01
2018-02-09T08:01:46.888Z,38.09
2018-02-09T08:02:55.843Z,38.18
2018-02-09T08:04:04.532Z,38.37
2018-02-09T08:05:13.485Z,38.47
2018-02-09T08:06:22.705Z,38.39
2018-02-09T08:07:31.391Z,38.37
2018-02-09T08:08:40.342Z,38.56
2018-02-09T08:09:49.564Z,38.37
2018-02-09T08:10:58.784Z,38.59
2018-02-09T08:12:07.749Z,38.39
2018-02-09T08:13:16.703Z,38.18
2018-02-09T08:14:25.668Z,38.95
2018-02-09T08:15:34.624Z,38.95
2018-02-09T08:16:43.581Z,38.56
2018-02-09T08:17:52.539Z,38.87
2018-02-09T08:19:01.227Z,38.66
2018-02-09T08:20:10.182Z,38.59
2018-02-09T08:21:19.142Z,38.85
2018-02-09T08:22:28.097Z,39.06
2018-02-09T08:23:37.053Z,38.78
2018-02-09T08:24:45.744Z,39.16
2018-02-09T08:25:54.701Z,38.96
2018-02-09T08:27:03.390Z,39.16
2018-02-09T08:28:12.081Z,38.78
2018-02-09T08:29:21.306Z,38.96
2018-02-09T08:30:30.267Z,38.96
2018-02-09T08:31:38.958Z,39.35
2018-02-09T08:32:47.916Z,38.96
2018-02-09T08:33:57.026Z,39.06
2018-02-09T08:35:05.905Z,38.87
2018-02-09T08:36:14.861Z,38.78
2018-02-09T08:37:24.212Z,38.96
2018-02-09T08:38:33.460Z,38.87
2018-02-09T08:39:42.150Z,39.54
2018-02-09T08:40:52.173Z,39.83
2018-02-09T08:42:01.309Z,39.64
2018-02-09T08:43:09.999Z,40.02
2018-02-09T08:44:19.218Z,39.93
2018-02-09T08:45:27.909Z,38.49
2018-02-09T08:46:37.335Z,37.82
2018-02-09T08:47:46.367Z,37.43
2018-02-09T08:48:55.680Z,37.15
2018-02-09T08:50:04.368Z,36.93
2018-02-09T08:51:13.319Z,36.65
2018-02-09T08:52:22.608Z,36.74
2018-02-09T08:53:31.896Z,37.13
2018-02-09T08:54:41.119Z,37.6
2018-02-09T08:55:50.075Z,37.7
2018-02-09T08:56:59.295Z,38.76
2018-02-09T08:58:07.988Z,38.95
2018-02-09T08:59:16.948Z,39.14
2018-02-09T09:00:25.637Z,38.95
2018-02-09T09:01:34.600Z,39.91
2018-02-09T09:02:43.290Z,39.81
2018-02-09T09:03:52.245Z,40
2018-02-09T09:05:01.466Z,40.2
2018-02-09T09:06:10.157Z,40.29
2018-02-09T09:07:19.374Z,40.99
2018-02-09T09:08:29.126Z,41.25
2018-02-09T09:09:38.346Z,41.44
2018-02-09T09:10:47.300Z,41.54
2018-02-09T09:11:55.991Z,41.17
2018-02-09T09:13:04.942Z,41.06
2018-02-09T09:14:13.895Z,40.29
2018-02-09T09:15:22.583Z,40
2018-02-09T09:16:31.800Z,39.62
2018-02-09T09:17:40.489Z,39.62
2018-02-09T09:18:49.449Z,38.85
2018-02-09T09:19:58.711Z,38.95
2018-02-09T09:21:08.216Z,39.72
2018-02-09T09:22:18.235Z,40.1
2018-02-09T09:23:27.190Z,39.81
2018-02-09T09:24:35.876Z,39.81
2018-02-09T09:25:44.565Z,40.12
2018-02-09T09:26:53.255Z,40
2018-02-09T09:28:01.944Z,40.29
2018-02-09T09:29:10.905Z,40.41
2018-02-09T09:30:20.127Z,40.31
2018-02-09T09:31:29.083Z,40.6
2018-02-09T09:32:37.773Z,41.17
2018-02-09T09:33:46.734Z,40.89
2018-02-09T09:34:55.698Z,41.08
2018-02-09T09:36:04.385Z,41.17
2018-02-09T09:37:13.345Z,40.89
2018-02-09T09:38:22.304Z,41.17
2018-02-09T09:39:31.259Z,41.17
2018-02-09T09:40:39.948Z,41.08
2018-02-09T09:41:48.635Z,41.08
2018-02-09T09:42:57.860Z,40.79
2018-02-09T09:44:06.551Z,40.79
2018-02-09T09:45:15.507Z,41.17
2018-02-09T09:46:24.728Z,40.5
2018-02-09T09:47:33.421Z,40.6
2018-02-09T09:48:42.647Z,40.6
2018-02-09T09:49:51.338Z,40.41
2018-02-09T09:51:00.826Z,40.31
2018-02-09T09:52:09.781Z,40.31
2018-02-09T09:53:18.746Z,40.41
2018-02-09T09:54:27.700Z,40.41
2018-02-09T09:55:36.389Z,40.31
2018-02-09T09:56:45.372Z,40.41
2018-02-09T09:57:54.049Z,40.5
2018-02-09T09:59:03.005Z,40.31
2018-02-09T10:00:11.960Z,40.12
2018-02-09T10:01:20.649Z,40.12
2018-02-09T10:02:29.337Z,40.5
2018-02-09T10:03:38.026Z,40.5
2018-02-09T10:04:47.249Z,40.41
2018-02-09T10:05:56.206Z,40.31
2018-02-09T10:07:05.427Z,40.41
2018-02-09T10:08:14.118Z,40.41
2018-02-09T10:09:23.359Z,40.41
2018-02-09T10:10:32.047Z,40.12
2018-02-09T10:11:41.271Z,40.41
2018-02-09T10:12:49.956Z,40.5
2018-02-09T10:13:59.453Z,40.5
2018-02-09T10:15:08.150Z,40.41
2018-02-09T10:16:16.837Z,40.41
2018-02-09T10:17:25.530Z,40.5
2018-02-09T10:18:34.484Z,40.43
2018-02-09T10:19:43.178Z,40.5
2018-02-09T10:20:51.868Z,40.31
2018-02-09T10:22:00.822Z,40.43
2018-02-09T10:23:09.779Z,40.5
2018-02-09T10:24:18.469Z,40.52
2018-02-09T10:25:27.158Z,40.31
2018-02-09T10:26:35.848Z,40.5
2018-02-09T10:27:45.338Z,40.43
2018-02-09T10:28:54.037Z,40.43
2018-02-09T10:30:02.729Z,40.23
2018-02-09T10:31:11.420Z,40.43
2018-02-09T10:32:20.114Z,40.33
2018-02-09T10:33:29.066Z,40.33
2018-02-09T10:34:38.021Z,40.23
2018-02-09T10:35:46.974Z,40.52
2018-02-09T10:36:55.931Z,40.23
2018-02-09T10:38:04.886Z,39.85
2018-02-09T10:39:14.113Z,39.64
2018-02-09T10:40:23.067Z,39.66
2018-02-09T10:41:32.293Z,39.83
2018-02-09T10:42:41.512Z,39.93
2018-02-09T10:43:51.001Z,40.02
2018-02-09T10:44:59.757Z,40.02
2018-02-09T10:46:09.108Z,39.73
2018-02-09T10:47:18.895Z,40.02
2018-02-09T10:48:28.297Z,39.83
2018-02-09T10:49:37.642Z,40.31
2018-02-09T10:50:46.335Z,40.22
2018-02-09T10:51:55.023Z,41.08
2018-02-09T10:53:03.711Z,41.17
2018-02-09T10:54:12.665Z,40.99
2018-02-09T10:55:21.363Z,41.08
2018-02-09T10:56:30.316Z,41.46
2018-02-09T10:57:39.009Z,41.27
2018-02-09T10:58:47.964Z,41.39
2018-02-09T10:59:56.926Z,41.39
2018-02-09T11:01:06.681Z,41.49
2018-02-09T11:02:15.373Z,41.29
2018-02-09T11:03:24.064Z,41.2
2018-02-09T11:04:32.757Z,41.29
2018-02-09T11:05:42.248Z,41.49
2018-02-09T11:06:50.939Z,41.29
2018-02-09T11:08:00.165Z,41.49
2018-02-09T11:09:09.389Z,41.1
2018-02-09T11:10:18.612Z,41
2018-02-09T11:11:27.302Z,41.1
2018-02-09T11:12:36.256Z,41.29
2018-02-09T11:13:45.210Z,41
2018-02-09T11:14:54.436Z,41.1
2018-02-09T11:16:03.391Z,41.1
2018-02-09T11:17:12.082Z,41.2
2018-02-09T11:18:21.423Z,41.2
2018-02-09T11:19:30.446Z,41.2
2018-02-09T11:20:39.184Z,40.91
2018-02-09T11:21:48.676Z,41.2
2018-02-09T11:22:57.903Z,40.81
2018-02-09T11:24:06.856Z,40.91
2018-02-09T11:25:15.821Z,41.1
2018-02-09T11:26:24.774Z,41
2018-02-09T11:27:33.734Z,41
2018-02-09T11:28:42.958Z,41.2
2018-02-09T11:29:52.183Z,41.1
2018-02-09T11:31:01.407Z,40.91
2018-02-09T11:32:10.366Z,41.29
2018-02-09T11:33:19.322Z,40.52
2018-02-09T11:34:28.013Z,40.33
2018-02-09T11:35:36.966Z,40.05
2018-02-09T11:36:45.920Z,39.85
2018-02-09T11:37:54.875Z,39.85
2018-02-09T11:39:04.112Z,39.66
2018-02-09T11:40:13.356Z,39.85
2018-02-09T11:41:22.292Z,39.76
2018-02-09T11:42:31.185Z,39.76
2018-02-09T11:43:39.954Z,39.85
2018-02-09T11:44:48.906Z,39.93
2018-02-09T11:45:57.862Z,39.85
2018-02-09T11:47:06.822Z,40.33
2018-02-09T11:48:15.509Z,40.14
2018-02-09T11:49:24.461Z,41.1
2018-02-09T11:50:33.152Z,40.91
2018-02-09T11:51:42.109Z,41.08
2018-02-09T11:52:51.335Z,41.1
2018-02-09T11:54:00.554Z,41.87
2018-02-09T11:55:09.244Z,42.73
2018-02-09T11:56:18.467Z,42.93
2018-02-09T11:57:27.689Z,43.7
2018-02-09T11:58:36.642Z,44.17
2018-02-09T11:59:45.333Z,44.75
2018-02-09T12:00:54.024Z,45.23
2018-02-09T12:02:03.251Z,45.61
2018-02-09T12:03:12.735Z,46
2018-02-09T12:04:21.687Z,45.81
2018-02-09T12:05:30.638Z,46.28
2018-02-09T12:06:39.597Z,46.09
2018-02-09T12:07:48.554Z,47.15
2018-02-09T12:08:57.507Z,46.58
2018-02-09T12:10:06.460Z,46.96
2018-02-09T12:11:15.413Z,46.67
2018-02-09T12:12:24.372Z,47.15
2018-02-09T12:13:33.323Z,46.58
2018-02-09T12:14:42.011Z,47.25
2018-02-09T12:15:50.700Z,46.96
2018-02-09T12:16:59.926Z,47.15
2018-02-09T12:18:08.618Z,46.96
2018-02-09T12:19:17.574Z,47.44
2018-02-09T12:20:26.264Z,47.05
2018-02-09T12:21:35.201Z,47.34
2018-02-09T12:22:44.467Z,47.05
2018-02-09T12:23:53.404Z,47.56
2018-02-09T12:25:02.294Z,47.56
2018-02-09T12:26:11.604Z,48.43
2018-02-09T12:27:20.825Z,48.23
2018-02-09T12:28:29.846Z,48.52
2018-02-09T12:29:39.070Z,48.71
2018-02-09T12:30:48.021Z,48.59
2018-02-09T12:31:56.978Z,49.17
2018-02-09T12:33:06.463Z,49.36
2018-02-09T12:34:15.153Z,49.84
2018-02-09T12:35:23.842Z,49.55
2018-02-09T12:36:33.062Z,50.42
2018-02-09T12:37:41.754Z,50.03
2018-02-09T12:38:50.711Z,49.74
2018-02-09T12:39:59.402Z,49.65
2018-02-09T12:41:08.891Z,49.96
2018-02-09T12:42:18.115Z,50.13
2018-02-09T12:43:27.071Z,50.63
2018-02-09T12:44:36.025Z,50.73
2018-02-09T12:45:44.713Z,50.51
2018-02-09T12:46:53.932Z,50.73
2018-02-09T12:48:02.618Z,50.32
2018-02-09T12:49:11.309Z,50.8
2018-02-09T12:50:20.546Z,51.02
2018-02-09T12:51:29.763Z,51.18
2018-02-09T12:52:38.714Z,50.9
2018-02-09T12:53:48.203Z,51.02
2018-02-09T12:54:56.890Z,50.92
2018-02-09T12:56:05.848Z,50.9
2018-02-09T12:57:15.334Z,51.02
2018-02-09T12:58:24.555Z,51.11
2018-02-09T12:59:33.506Z,51.98
2018-02-09T13:00:42.456Z,51.57
2018-02-09T13:01:51.146Z,51.57
2018-02-09T13:03:00.096Z,51.76
2018-02-09T13:04:09.052Z,51.79
2018-02-09T13:05:18.277Z,51.69
2018-02-09T13:06:27.232Z,51.59
2018-02-09T13:07:36.459Z,51.79
2018-02-09T13:08:45.681Z,51.57
2018-02-09T13:09:54.631Z,51.76
2018-02-09T13:11:03.852Z,51.98
2018-02-09T13:12:13.075Z,51.79
2018-02-09T13:13:22.030Z,51.86
2018-02-09T13:14:30.716Z,51.76
2018-02-09T13:15:39.406Z,51.69
2018-02-09T13:16:48.363Z,51.79
2018-02-09T13:17:57.053Z,51.98
2018-02-09T13:19:06.010Z,51.95
2018-02-09T13:20:14.700Z,51.98
2018-02-09T13:21:24.447Z,52.05
2018-02-09T13:22:33.141Z,52.43
2018-02-09T13:23:41.829Z,52.81
2018-02-09T13:24:50.519Z,52.34
2018-02-09T13:25:59.207Z,52.24
2018-02-09T13:27:07.898Z,52.43
2018-02-09T13:28:16.860Z,52.55
2018-02-09T13:29:25.548Z,52.72
2018-02-09T13:30:34.507Z,52.53
2018-02-09T13:31:43.479Z,52.34
2018-02-09T13:32:52.169Z,52.62
2018-02-09T13:34:01.126Z,52.34
2018-02-09T13:35:10.611Z,52.53
2018-02-09T13:36:19.834Z,52.53
2018-02-09T13:37:28.789Z,52.34
2018-02-09T13:38:37.480Z,52.53
2018-02-09T13:39:46.975Z,52.62
2018-02-09T13:40:55.659Z,52.62
2018-02-09T13:42:04.880Z,52.72
2018-02-09T13:43:14.099Z,52.72
2018-02-09T13:44:22.785Z,52.81
2018-02-09T13:45:32.016Z,53.01
2018-02-09T13:46:40.972Z,52.81
2018-02-09T13:47:50.192Z,53.2
2018-02-09T13:48:59.150Z,52.53
2018-02-09T13:50:08.637Z,53.3
2018-02-09T13:51:17.859Z,53.49
2018-02-09T13:52:27.078Z,53.2
2018-02-09T13:53:36.296Z,52.91
2018-02-09T13:54:44.988Z,53.11
2018-02-09T13:55:54.211Z,53.11
2018-02-09T13:57:03.164Z,53.3
2018-02-09T13:58:11.850Z,52.62
2018-02-09T13:59:21.070Z,53.39
2018-02-09T14:00:29.764Z,53.3
2018-02-09T14:01:38.742Z,53.49
2018-02-09T14:02:47.932Z,53.2
2018-02-09T14:03:56.708Z,53.11
2018-02-09T14:05:05.398Z,53.49
2018-02-09T14:06:14.087Z,53.11
2018-02-09T14:07:22.774Z,53.11
2018-02-09T14:08:31.724Z,53.2
2018-02-09T14:09:40.690Z,53.11
2018-02-09T14:10:49.648Z,52.91
2018-02-09T14:11:58.605Z,53.11
2018-02-09T14:13:07.824Z,53.11
2018-02-09T14:14:17.048Z,53.2
2018-02-09T14:15:26.051Z,52.24
2018-02-09T14:16:35.001Z,50.42
2018-02-09T14:17:43.849Z,48.69
2018-02-09T14:18:53.064Z,47.15
2018-02-09T14:20:02.021Z,46.67
2018-02-09T14:21:11.245Z,45.01
2018-02-09T14:22:20.467Z,44.24
2018-02-09T14:23:29.422Z,43.38
2018-02-09T14:24:38.906Z,42.81
2018-02-09T14:25:47.858Z,42.04
2018-02-09T14:26:57.081Z,41.85
2018-02-09T14:28:06.569Z,41.17
2018-02-09T14:29:15.524Z,40.41
2018-02-09T14:30:24.211Z,39.91
2018-02-09T14:31:33.162Z,40.48
2018-02-09T14:32:41.850Z,40.96
2018-02-09T14:33:50.805Z,41.06
2018-02-09T14:35:00.111Z,41.63
2018-02-09T14:36:09.847Z,41.73
2018-02-09T14:37:19.053Z,42.11
2018-02-09T14:38:28.005Z,42.88
2018-02-09T14:39:36.690Z,43.27
2018-02-09T14:40:45.643Z,43.65
2018-02-09T14:41:54.330Z,43.46
2018-02-09T14:43:03.019Z,44.34
2018-02-09T14:44:11.977Z,45.21
2018-02-09T14:45:21.456Z,45.4
2018-02-09T14:46:30.416Z,46.26
2018-02-09T14:47:39.102Z,46.94
2018-02-09T14:48:48.053Z,46.74
2018-02-09T14:49:57.007Z,47.51
2018-02-09T14:51:05.958Z,46.94
2018-02-09T14:52:14.652Z,47.41
2018-02-09T14:53:23.605Z,47.51
2018-02-09T14:54:32.293Z,47.61